Aplicació Alertes

Dades de l'estació automàtica Solsona

?
?
Resum diari 23:00 TU
Dades diàries de l'estació meteorològica
Temperatura mitjana 5.8 °C
Temperatura màxima 15.3 °C 14:19 TU
Temperatura mínima -0.7 °C 5:13 TU
Humitat relativa mitjana 67%
Precipitació acumulada 0.0 mm
Ratxa màxima del vent (10 m) 17.6 km/h - 296º 10:31 TU
Pressió atmosfèrica mitjana 1022.8 hPa
Irradiació solar global 10.6 MJ/m2

El tram horari està expressat en Temps Universal (TU). Cal sumar una hora en horari d'hivern i dues en horari d'estiu per passar a l'hora oficial.

Solsona

Metadades estació meteorol´gica
Municipi Solsona
Comarca Solsonès
Altitud 691 m
Data alta 12.07.2012
Estat actual Operativa
Dades de període
Període
TU
TM
°C
TX
°C
TN
°C
HRM
%
PPT
mm
VVM (10 m)
km/h
DVM (10 m)
graus
VVX (10 m)
km/h
PM
hPa
RS
W/m2
00:00 - 00:30 2.2 2.7 1.3 87 0.0 0.0 0 0.0 1023.5 0
00:30 - 01:00 0.9 1.3 0.2 90 0.0 0.0 0 0.0 1023.9 0
01:00 - 01:30 1.2 1.6 0.2 90 0.0 0.0 0 0.0 1023.8 0
01:30 - 02:00 1.8 2.8 1.2 85 0.0 0.0 269 3.2 1023.6 0
02:00 - 02:30 0.6 1.5 0.0 87 0.0 0.7 322 7.2 1024.0 0
02:30 - 03:00 2.3 3.5 0.8 74 0.0 1.1 44 6.8 1023.2 0
03:00 - 03:30 0.7 1.5 0.1 80 0.0 1.4 90 7.2 1023.5 0
03:30 - 04:00 0.9 3.1 -0.6 78 0.0 3.6 328 12.6 1023.5 0
04:00 - 04:30 1.3 1.9 0.6 73 0.0 1.1 14 7.6 1023.2 0
04:30 - 05:00 1.1 2.3 0.2 71 0.0 1.4 294 6.8 1023.2 0
05:00 - 05:30 -0.2 0.8 -0.7 79 0.0 2.9 289 8.3 1023.8 0
05:30 - 06:00 1.9 3.7 0.2 70 0.0 3.6 321 11.2 1023.1 0
06:00 - 06:30 1.9 3.2 -0.5 65 0.0 3.2 24 10.1 1023.3 0
06:30 - 07:00 0.8 1.7 0.0 72 0.0 1.4 290 4.7 1023.7 3
07:00 - 07:30 1.4 2.6 0.6 70 0.0 0.4 353 5.4 1023.8 34
07:30 - 08:00 1.9 2.6 1.5 70 0.0 1.8 122 5.4 1023.8 87
08:00 - 08:30 3.4 4.4 2.1 67 0.0 1.1 128 6.1 1023.6 206
08:30 - 09:00 6.1 7.6 4.4 56 0.0 1.1 143 4.7 1023.1 278
09:00 - 09:30 8.2 9.3 7.6 47 0.0 1.8 140 9.4 1022.6 347
09:30 - 10:00 9.8 10.3 9.4 41 0.0 6.1 267 12.6 1022.3 416
10:00 - 10:30 10.7 11.3 9.8 37 0.0 7.2 296 17.3 1022.2 457
10:30 - 11:00 11.5 12.1 10.9 36 0.0 9.4 281 17.6 1021.8 493
11:00 - 11:30 12.3 12.6 11.9 36 0.0 7.6 284 11.2 1021.2 517
11:30 - 12:00 12.8 13.4 12.5 37 0.0 9.0 277 15.1 1020.8 507
12:00 - 12:30 13.5 13.9 13.2 39 0.0 7.2 275 14.8 1020.4 505
12:30 - 13:00 14.0 14.8 13.6 38 0.0 6.5 240 12.6 1020.0 481
13:00 - 13:30 14.3 15.1 13.5 39 0.0 5.4 265 10.4 1019.8 392
13:30 - 14:00 14.5 14.8 13.8 40 0.0 6.1 255 10.4 1019.5 389
14:00 - 14:30 15.0 15.3 14.7 39 0.0 5.8 255 9.4 1019.3 323
14:30 - 15:00 14.7 15.1 14.0 42 0.0 7.9 265 13.3 1019.5 250
15:00 - 15:30 13.1 13.9 12.6 49 0.0 11.5 270 15.5 1020.0 171
15:30 - 16:00 11.8 12.6 10.2 54 0.0 9.7 277 15.1 1020.4 79
16:00 - 16:30 9.2 10.1 8.0 64 0.0 8.3 289 13.0 1021.4 9
16:30 - 17:00 7.3 7.9 6.7 73 0.0 8.3 272 12.2 1022.0 0
17:00 - 17:30 6.9 7.3 6.5 75 0.0 3.6 286 7.2 1022.4 0
17:30 - 18:00 6.5 7.0 5.8 76 0.0 0.7 271 4.3 1022.8 0
18:00 - 18:30 5.0 5.5 4.4 82 0.0 4.0 271 8.3 1023.6 0
18:30 - 19:00 4.2 4.7 3.9 85 0.0 1.8 279 7.9 1024.0 0
19:00 - 19:30 4.3 4.9 3.9 84 0.0 0.0 262 1.4 1024.1 0
19:30 - 20:00 3.4 3.9 3.1 86 0.0 0.7 261 6.1 1024.5 0
20:00 - 20:30 3.5 3.9 3.1 87 0.0 0.4 278 6.1 1024.6 0
20:30 - 21:00 3.4 4.0 3.0 86 0.0 0.0 0 0.0 1024.9 0
21:00 - 21:30 3.0 3.6 2.5 86 0.0 0.7 283 6.1 1025.1 0
21:30 - 22:00 2.6 3.1 1.8 87 0.0 0.4 277 4.0 1025.4 0
22:00 - 22:30 2.5 2.7 2.1 87 0.0 2.5 259 6.5 1025.4 0
22:30 - 23:00 2.5 2.8 2.2 86 0.0 0.0 0 0.0 1025.5 0
23:00 - 23:30 1.8 2.1 1.7 88 0.0 0.0 0 0.0 1025.9 0

Les dades en taronja només han passat un control de qualitat automàtic. Resta pendent la seva validació definitiva.